sensor_id;sensor_type;location;lat;lon;timestamp;temperature;humidity
70867;HTU21D;58487;53.474;49.470;2024-03-23T00:54:32;-1.49;65.84
70867;HTU21D;58487;53.474;49.470;2024-03-23T00:56:58;-1.45;67.21
70867;HTU21D;58487;53.474;49.470;2024-03-23T00:59:24;-1.70;74.48
70867;HTU21D;58487;53.474;49.470;2024-03-23T01:01:54;-1.77;75.60
70867;HTU21D;58487;53.474;49.470;2024-03-23T01:04:20;-2.07;82.87
70867;HTU21D;58487;53.474;49.470;2024-03-23T01:06:47;-2.06;93.44
70867;HTU21D;58487;53.474;49.470;2024-03-23T01:09:13;-1.85;81.61
70867;HTU21D;58487;53.474;49.470;2024-03-23T01:11:39;-2.13;118.99
70867;HTU21D;58487;53.474;49.470;2024-03-23T01:14:05;-2.34;76.22
70867;HTU21D;58487;53.474;49.470;2024-03-23T01:16:32;-2.15;71.22
70867;HTU21D;58487;53.474;49.470;2024-03-23T01:18:58;-2.00;77.27
70867;HTU21D;58487;53.474;49.470;2024-03-23T01:21:24;-1.89;78.95
70867;HTU21D;58487;53.474;49.470;2024-03-23T01:23:50;-1.97;82.76
70867;HTU21D;58487;53.474;49.470;2024-03-23T01:26:17;-1.99;78.14
70867;HTU21D;58487;53.474;49.470;2024-03-23T01:28:43;-1.97;87.74
70867;HTU21D;58487;53.474;49.470;2024-03-23T01:31:09;-1.97;69.20
70867;HTU21D;58487;53.474;49.470;2024-03-23T01:33:35;-1.84;68.05
70867;HTU21D;58487;53.474;49.470;2024-03-23T01:36:01;-1.78;89.20
70867;HTU21D;58487;53.474;49.470;2024-03-23T01:38:27;-1.70;73.93
70867;HTU21D;58487;53.474;49.470;2024-03-23T01:40:57;-1.59;105.41
70867;HTU21D;58487;53.474;49.470;2024-03-23T01:43:24;-1.79;70.68
70867;HTU21D;58487;53.474;49.470;2024-03-23T01:45:50;-2.06;73.83
70867;HTU21D;58487;53.474;49.470;2024-03-23T01:48:20;-2.03;69.20
70867;HTU21D;58487;53.474;49.470;2024-03-23T01:50:46;-2.15;95.91
70867;HTU21D;58487;53.474;49.470;2024-03-23T01:53:14;-2.29;61.90
70867;HTU21D;58487;53.474;49.470;2024-03-23T01:55:43;-2.08;71.57
70867;HTU21D;58487;53.474;49.470;2024-03-23T01:58:09;-2.15;72.06
70867;HTU21D;58487;53.474;49.470;2024-03-23T02:00:36;-2.16;71.97
70867;HTU21D;58487;53.474;49.470;2024-03-23T02:03:02;-2.35;74.46
70867;HTU21D;58487;53.474;49.470;2024-03-23T02:05:47;-2.31;74.82
70867;HTU21D;58487;53.474;49.470;2024-03-23T02:08:13;-2.56;67.46
70867;HTU21D;58487;53.474;49.470;2024-03-23T02:10:40;-2.41;66.93
70867;HTU21D;58487;53.474;49.470;2024-03-23T02:13:06;-2.33;67.53
70867;HTU21D;58487;53.474;49.470;2024-03-23T02:15:32;-2.32;72.35
70867;HTU21D;58487;53.474;49.470;2024-03-23T02:17:59;-2.28;61.80
70867;HTU21D;58487;53.474;49.470;2024-03-23T02:20:25;-2.06;65.83
70867;HTU21D;58487;53.474;49.470;2024-03-23T02:22:53;-2.24;75.89
70867;HTU21D;58487;53.474;49.470;2024-03-23T02:25:19;-2.28;64.63
70867;HTU21D;58487;53.474;49.470;2024-03-23T02:27:45;-2.63;63.31
70867;HTU21D;58487;53.474;49.470;2024-03-23T02:30:11;-2.19;94.22
70867;HTU21D;58487;53.474;49.470;2024-03-23T02:32:37;-2.04;77.40
70867;HTU21D;58487;53.474;49.470;2024-03-23T02:35:03;-2.23;69.39
70867;HTU21D;58487;53.474;49.470;2024-03-23T02:37:30;-2.06;66.79
70867;HTU21D;58487;53.474;49.470;2024-03-23T02:39:57;-2.24;77.09
70867;HTU21D;58487;53.474;49.470;2024-03-23T02:42:22;-2.07;74.28
70867;HTU21D;58487;53.474;49.470;2024-03-23T02:44:49;-2.20;103.53
70867;HTU21D;58487;53.474;49.470;2024-03-23T02:47:15;-2.27;73.22
70867;HTU21D;58487;53.474;49.470;2024-03-23T02:49:41;-2.17;73.10
70867;HTU21D;58487;53.474;49.470;2024-03-23T02:52:06;-2.24;64.13
70867;HTU21D;58487;53.474;49.470;2024-03-23T02:54:32;-2.29;72.58
70867;HTU21D;58487;53.474;49.470;2024-03-23T02:56:59;-2.23;67.40
70867;HTU21D;58487;53.474;49.470;2024-03-23T02:59:25;-2.10;73.03
70867;HTU21D;58487;53.474;49.470;2024-03-23T03:01:50;-2.04;76.05
70867;HTU21D;58487;53.474;49.470;2024-03-23T03:04:16;-2.15;69.08
70867;HTU21D;58487;53.474;49.470;2024-03-23T03:06:47;-1.92;70.17
70867;HTU21D;58487;53.474;49.470;2024-03-23T03:09:13;-2.02;79.46
70867;HTU21D;58487;53.474;49.470;2024-03-23T03:11:39;-2.28;69.13
70867;HTU21D;58487;53.474;49.470;2024-03-23T03:14:05;-2.03;83.52
70867;HTU21D;58487;53.474;49.470;2024-03-23T03:16:33;-2.10;69.32
70867;HTU21D;58487;53.474;49.470;2024-03-23T03:18:59;-2.07;73.21
70867;HTU21D;58487;53.474;49.470;2024-03-23T03:21:26;-2.00;78.87
70867;HTU21D;58487;53.474;49.470;2024-03-23T03:23:52;-2.02;77.33
70867;HTU21D;58487;53.474;49.470;2024-03-23T03:26:19;-1.86;88.70
70867;HTU21D;58487;53.474;49.470;2024-03-23T03:28:45;-1.48;82.82
70867;HTU21D;58487;53.474;49.470;2024-03-23T03:31:15;-1.50;65.49
70867;HTU21D;58487;53.474;49.470;2024-03-23T03:33:42;-2.08;78.77
70867;HTU21D;58487;53.474;49.470;2024-03-23T03:36:11;-1.64;78.03
70867;HTU21D;58487;53.474;49.470;2024-03-23T03:38:37;-1.53;71.88
70867;HTU21D;58487;53.474;49.470;2024-03-23T03:41:06;-1.58;65.14
70867;HTU21D;58487;53.474;49.470;2024-03-23T03:43:32;-1.45;69.47
70867;HTU21D;58487;53.474;49.470;2024-03-23T03:45:59;-1.46;72.94
70867;HTU21D;58487;53.474;49.470;2024-03-23T03:48:26;-1.35;70.84
70867;HTU21D;58487;53.474;49.470;2024-03-23T03:50:53;-1.52;77.61
70867;HTU21D;58487;53.474;49.470;2024-03-23T03:53:19;-1.41;76.88
70867;HTU21D;58487;53.474;49.470;2024-03-23T03:55:45;-1.35;85.84
70867;HTU21D;58487;53.474;49.470;2024-03-23T03:58:11;-1.50;68.13
70867;HTU21D;58487;53.474;49.470;2024-03-23T04:00:38;-1.38;78.11
70867;HTU21D;58487;53.474;49.470;2024-03-23T04:03:04;-1.52;77.58
70867;HTU21D;58487;53.474;49.470;2024-03-23T04:05:30;-1.34;74.00
70867;HTU21D;58487;53.474;49.470;2024-03-23T04:07:56;-1.33;76.62
70867;HTU21D;58487;53.474;49.470;2024-03-23T04:10:22;-1.15;76.43
70867;HTU21D;58487;53.474;49.470;2024-03-23T04:12:49;-1.01;68.26
70867;HTU21D;58487;53.474;49.470;2024-03-23T04:15:16;-0.88;61.27
70867;HTU21D;58487;53.474;49.470;2024-03-23T04:17:42;-1.03;88.02
70867;HTU21D;58487;53.474;49.470;2024-03-23T04:20:09;-0.68;77.63
70867;HTU21D;58487;53.474;49.470;2024-03-23T04:22:37;-0.60;65.98
70867;HTU21D;58487;53.474;49.470;2024-03-23T04:25:03;-0.34;65.30
70867;HTU21D;58487;53.474;49.470;2024-03-23T04:27:33;-0.19;70.17
70867;HTU21D;58487;53.474;49.470;2024-03-23T04:29:59;-0.47;95.75
70867;HTU21D;58487;53.474;49.470;2024-03-23T04:32:27;0.07;70.03
70867;HTU21D;58487;53.474;49.470;2024-03-23T04:34:54;0.02;76.01
70867;HTU21D;58487;53.474;49.470;2024-03-23T04:37:20;-0.17;68.52
70867;HTU21D;58487;53.474;49.470;2024-03-23T04:39:47;-0.05;67.59
70867;HTU21D;58487;53.474;49.470;2024-03-23T04:42:17;-0.14;70.48
70867;HTU21D;58487;53.474;49.470;2024-03-23T04:44:43;0.08;68.07
70867;HTU21D;58487;53.474;49.470;2024-03-23T04:47:10;-0.08;66.81
70867;HTU21D;58487;53.474;49.470;2024-03-23T04:49:36;0.04;82.14
70867;HTU21D;58487;53.474;49.470;2024-03-23T04:52:04;-0.03;74.44
70867;HTU21D;58487;53.474;49.470;2024-03-23T04:54:30;0.15;78.10
70867;HTU21D;58487;53.474;49.470;2024-03-23T04:56:58;0.29;89.54
70867;HTU21D;58487;53.474;49.470;2024-03-23T04:59:24;0.43;80.11
70867;HTU21D;58487;53.474;49.470;2024-03-23T05:01:50;0.43;81.22
70867;HTU21D;58487;53.474;49.470;2024-03-23T05:04:16;0.22;71.29
70867;HTU21D;58487;53.474;49.470;2024-03-23T05:06:42;0.54;66.15
70867;HTU21D;58487;53.474;49.470;2024-03-23T05:09:08;0.52;73.37
70867;HTU21D;58487;53.474;49.470;2024-03-23T05:11:38;0.61;72.69
70867;HTU21D;58487;53.474;49.470;2024-03-23T05:14:04;0.81;73.25
70867;HTU21D;58487;53.474;49.470;2024-03-23T05:16:30;0.62;67.74
70867;HTU21D;58487;53.474;49.470;2024-03-23T05:18:56;0.68;76.78
70867;HTU21D;58487;53.474;49.470;2024-03-23T05:21:22;0.90;77.33
70867;HTU21D;58487;53.474;49.470;2024-03-23T05:23:51;0.77;67.52
70867;HTU21D;58487;53.474;49.470;2024-03-23T05:26:17;0.63;72.38
70867;HTU21D;58487;53.474;49.470;2024-03-23T05:28:43;0.75;71.28
70867;HTU21D;58487;53.474;49.470;2024-03-23T05:31:09;1.01;65.87
70867;HTU21D;58487;53.474;49.470;2024-03-23T05:33:36;0.94;82.81
70867;HTU21D;58487;53.474;49.470;2024-03-23T05:36:04;0.94;76.55
70867;HTU21D;58487;53.474;49.470;2024-03-23T05:38:30;0.81;75.42
70867;HTU21D;58487;53.474;49.470;2024-03-23T05:40:57;0.82;76.32
70867;HTU21D;58487;53.474;49.470;2024-03-23T05:43:24;0.74;80.94
70867;HTU21D;58487;53.474;49.470;2024-03-23T05:45:54;0.98;78.11
70867;HTU21D;58487;53.474;49.470;2024-03-23T05:48:21;1.02;80.07
70867;HTU21D;58487;53.474;49.470;2024-03-23T05:50:48;1.31;79.04
70867;HTU21D;58487;53.474;49.470;2024-03-23T05:53:15;1.58;74.40
70867;HTU21D;58487;53.474;49.470;2024-03-23T05:55:41;1.25;78.76
70867;HTU21D;58487;53.474;49.470;2024-03-23T05:58:08;1.62;79.96
70867;HTU21D;58487;53.474;49.470;2024-03-23T06:00:34;1.60;80.01
70867;HTU21D;58487;53.474;49.470;2024-03-23T06:03:00;2.10;81.49
70867;HTU21D;58487;53.474;49.470;2024-03-23T06:05:26;1.94;82.32
70867;HTU21D;58487;53.474;49.470;2024-03-23T06:07:53;2.15;91.40
70867;HTU21D;58487;53.474;49.470;2024-03-23T06:10:19;2.27;81.47
70867;HTU21D;58487;53.474;49.470;2024-03-23T06:12:48;1.96;84.44
70867;HTU21D;58487;53.474;49.470;2024-03-23T06:15:16;1.86;75.13
70867;HTU21D;58487;53.474;49.470;2024-03-23T06:17:42;1.96;75.51
70867;HTU21D;58487;53.474;49.470;2024-03-23T06:20:08;1.36;81.52
70867;HTU21D;58487;53.474;49.470;2024-03-23T06:22:36;1.25;89.30
70867;HTU21D;58487;53.474;49.470;2024-03-23T06:25:02;1.32;87.53
70867;HTU21D;58487;53.474;49.470;2024-03-23T06:27:28;2.05;81.85
70867;HTU21D;58487;53.474;49.470;2024-03-23T06:29:54;1.86;74.93
70867;HTU21D;58487;53.474;49.470;2024-03-23T06:32:21;2.14;80.17
70867;HTU21D;58487;53.474;49.470;2024-03-23T06:34:46;2.16;75.50
70867;HTU21D;58487;53.474;49.470;2024-03-23T06:37:12;2.52;68.71
70867;HTU21D;58487;53.474;49.470;2024-03-23T06:39:39;2.73;85.13
70867;HTU21D;58487;53.474;49.470;2024-03-23T06:42:05;2.74;67.77
70867;HTU21D;58487;53.474;49.470;2024-03-23T06:44:31;3.02;75.91
70867;HTU21D;58487;53.474;49.470;2024-03-23T06:46:58;3.04;79.19
70867;HTU21D;58487;53.474;49.470;2024-03-23T06:49:24;3.21;81.33
70867;HTU21D;58487;53.474;49.470;2024-03-23T06:51:50;3.21;79.98
70867;HTU21D;58487;53.474;49.470;2024-03-23T06:54:19;3.38;79.91
70867;HTU21D;58487;53.474;49.470;2024-03-23T06:56:46;3.43;101.24
70867;HTU21D;58487;53.474;49.470;2024-03-23T06:59:12;3.23;85.71
70867;HTU21D;58487;53.474;49.470;2024-03-23T07:01:38;3.26;77.21
70867;HTU21D;58487;53.474;49.470;2024-03-23T07:04:04;3.02;77.03
70867;HTU21D;58487;53.474;49.470;2024-03-23T07:06:31;3.15;72.74
70867;HTU21D;58487;53.474;49.470;2024-03-23T07:08:57;2.67;78.09
70867;HTU21D;58487;53.474;49.470;2024-03-23T07:11:24;2.94;79.98
70867;HTU21D;58487;53.474;49.470;2024-03-23T07:13:51;3.17;82.01
70867;HTU21D;58487;53.474;49.470;2024-03-23T07:16:17;3.32;94.53
70867;HTU21D;58487;53.474;49.470;2024-03-23T07:18:44;3.45;83.10
70867;HTU21D;58487;53.474;49.470;2024-03-23T07:21:10;3.10;77.94
70867;HTU21D;58487;53.474;49.470;2024-03-23T07:23:36;3.18;83.46
70867;HTU21D;58487;53.474;49.470;2024-03-23T07:26:05;3.32;86.32
70867;HTU21D;58487;53.474;49.470;2024-03-23T07:28:31;3.27;90.08
70867;HTU21D;58487;53.474;49.470;2024-03-23T07:31:08;3.11;88.20
70867;HTU21D;58487;53.474;49.470;2024-03-23T07:33:36;2.84;85.90
70867;HTU21D;58487;53.474;49.470;2024-03-23T07:36:04;3.21;85.30
70867;HTU21D;58487;53.474;49.470;2024-03-23T07:38:31;3.59;90.89
70867;HTU21D;58487;53.474;49.470;2024-03-23T07:41:10;3.19;86.27
70867;HTU21D;58487;53.474;49.470;2024-03-23T07:43:37;3.14;81.33
70867;HTU21D;58487;53.474;49.470;2024-03-23T07:46:05;3.10;82.98
70867;HTU21D;58487;53.474;49.470;2024-03-23T07:48:31;2.96;118.99
70867;HTU21D;58487;53.474;49.470;2024-03-23T07:51:11;2.99;87.14
70867;HTU21D;58487;53.474;49.470;2024-03-23T07:53:37;2.91;85.71
70867;HTU21D;58487;53.474;49.470;2024-03-23T07:56:08;3.35;85.93
70867;HTU21D;58487;53.474;49.470;2024-03-23T07:58:36;3.26;78.89
70867;HTU21D;58487;53.474;49.470;2024-03-23T08:01:10;3.16;84.81
70867;HTU21D;58487;53.474;49.470;2024-03-23T08:03:37;3.43;74.73
70867;HTU21D;58487;53.474;49.470;2024-03-23T08:06:17;3.82;104.37
70867;HTU21D;58487;53.474;49.470;2024-03-23T08:08:46;3.57;75.67
70867;HTU21D;58487;53.474;49.470;2024-03-23T08:11:13;3.58;80.51
70867;HTU21D;58487;53.474;49.470;2024-03-23T08:13:41;3.69;79.59
70867;HTU21D;58487;53.474;49.470;2024-03-23T08:16:08;3.82;82.51
70867;HTU21D;58487;53.474;49.470;2024-03-23T08:18:37;3.76;118.99
70867;HTU21D;58487;53.474;49.470;2024-03-23T08:21:06;3.77;85.73
70867;HTU21D;58487;53.474;49.470;2024-03-23T08:23:34;3.87;105.08
70867;HTU21D;58487;53.474;49.470;2024-03-23T08:26:09;3.48;118.99
70867;HTU21D;58487;53.474;49.470;2024-03-23T08:28:36;3.72;97.55
70867;HTU21D;58487;53.474;49.470;2024-03-23T08:31:07;3.64;101.54
70867;HTU21D;58487;53.474;49.470;2024-03-23T08:33:42;3.67;101.70
70867;HTU21D;58487;53.474;49.470;2024-03-23T08:36:10;3.49;106.27
70867;HTU21D;58487;53.474;49.470;2024-03-23T08:38:40;3.74;108.19
70867;HTU21D;58487;53.474;49.470;2024-03-23T08:41:11;3.12;99.83
70867;HTU21D;58487;53.474;49.470;2024-03-23T08:43:38;3.77;94.48
70867;HTU21D;58487;53.474;49.470;2024-03-23T08:48:35;3.88;107.11
70867;HTU21D;58487;53.474;49.470;2024-03-23T08:51:03;3.94;108.45
70867;HTU21D;58487;53.474;49.470;2024-03-23T08:53:29;4.18;99.98
70867;HTU21D;58487;53.474;49.470;2024-03-23T08:55:56;4.48;97.58
70867;HTU21D;58487;53.474;49.470;2024-03-23T08:58:27;4.61;97.32
70867;HTU21D;58487;53.474;49.470;2024-03-23T09:00:55;4.69;99.19
70867;HTU21D;58487;53.474;49.470;2024-03-23T09:03:25;4.92;99.40
70867;HTU21D;58487;53.474;49.470;2024-03-23T09:05:52;5.36;105.43
70867;HTU21D;58487;53.474;49.470;2024-03-23T09:08:18;5.63;110.37
70867;HTU21D;58487;53.474;49.470;2024-03-23T09:10:45;5.82;109.61
70867;HTU21D;58487;53.474;49.470;2024-03-23T09:13:11;5.82;114.83
70867;HTU21D;58487;53.474;49.470;2024-03-23T09:15:45;5.85;107.17
70867;HTU21D;58487;53.474;49.470;2024-03-23T09:18:11;5.98;106.17
70867;HTU21D;58487;53.474;49.470;2024-03-23T09:20:37;5.95;102.98
70867;HTU21D;58487;53.474;49.470;2024-03-23T09:23:03;5.81;105.79
70867;HTU21D;58487;53.474;49.470;2024-03-23T09:25:38;6.26;103.70
70867;HTU21D;58487;53.474;49.470;2024-03-23T09:28:05;6.21;99.91
70867;HTU21D;58487;53.474;49.470;2024-03-23T09:30:32;5.83;101.51
70867;HTU21D;58487;53.474;49.470;2024-03-23T09:32:59;5.90;102.21
70867;HTU21D;58487;53.474;49.470;2024-03-23T09:35:25;6.31;96.60
70867;HTU21D;58487;53.474;49.470;2024-03-23T09:37:51;6.86;99.92
70867;HTU21D;58487;53.474;49.470;2024-03-23T09:40:17;6.80;94.16
70867;HTU21D;58487;53.474;49.470;2024-03-23T09:42:49;7.09;97.01
70867;HTU21D;58487;53.474;49.470;2024-03-23T09:45:26;7.53;100.25
70867;HTU21D;58487;53.474;49.470;2024-03-23T09:47:53;7.03;101.92
70867;HTU21D;58487;53.474;49.470;2024-03-23T09:50:20;7.64;101.38
70867;HTU21D;58487;53.474;49.470;2024-03-23T09:52:46;8.33;96.77
70867;HTU21D;58487;53.474;49.470;2024-03-23T09:55:13;8.61;103.94
70867;HTU21D;58487;53.474;49.470;2024-03-23T09:57:42;8.74;103.02
70867;HTU21D;58487;53.474;49.470;2024-03-23T10:00:09;8.62;101.67
70867;HTU21D;58487;53.474;49.470;2024-03-23T10:02:36;8.96;111.29
70867;HTU21D;58487;53.474;49.470;2024-03-23T10:05:03;8.70;111.61
70867;HTU21D;58487;53.474;49.470;2024-03-23T10:07:29;9.51;96.10
70867;HTU21D;58487;53.474;49.470;2024-03-23T10:09:56;9.56;113.36
70867;HTU21D;58487;53.474;49.470;2024-03-23T10:12:23;9.72;103.89
70867;HTU21D;58487;53.474;49.470;2024-03-23T10:14:49;9.63;106.66
70867;HTU21D;58487;53.474;49.470;2024-03-23T10:17:20;8.28;114.35
70867;HTU21D;58487;53.474;49.470;2024-03-23T10:19:51;7.29;104.72
70867;HTU21D;58487;53.474;49.470;2024-03-23T10:22:19;6.71;105.34
70867;HTU21D;58487;53.474;49.470;2024-03-23T10:24:45;6.41;109.39
70867;HTU21D;58487;53.474;49.470;2024-03-23T10:27:19;6.49;112.25
70867;HTU21D;58487;53.474;49.470;2024-03-23T10:29:51;6.99;108.59
70867;HTU21D;58487;53.474;49.470;2024-03-23T10:32:20;7.78;110.07
70867;HTU21D;58487;53.474;49.470;2024-03-23T10:34:49;7.59;113.91
70867;HTU21D;58487;53.474;49.470;2024-03-23T10:37:15;6.99;108.84
70867;HTU21D;58487;53.474;49.470;2024-03-23T10:39:42;6.30;106.69
70867;HTU21D;58487;53.474;49.470;2024-03-23T10:42:09;5.74;104.24
70867;HTU21D;58487;53.474;49.470;2024-03-23T10:44:39;5.74;109.74
70867;HTU21D;58487;53.474;49.470;2024-03-23T10:47:05;6.40;100.61
70867;HTU21D;58487;53.474;49.470;2024-03-23T10:49:33;6.78;111.13
70867;HTU21D;58487;53.474;49.470;2024-03-23T10:52:01;7.53;99.97
70867;HTU21D;58487;53.474;49.470;2024-03-23T10:54:28;7.91;110.85
70867;HTU21D;58487;53.474;49.470;2024-03-23T10:59:49;7.88;106.20
70867;HTU21D;58487;53.474;49.470;2024-03-23T11:02:20;7.52;117.38
70867;HTU21D;58487;53.474;49.470;2024-03-23T11:04:48;7.67;112.63
70867;HTU21D;58487;53.474;49.470;2024-03-23T11:07:33;8.18;109.14
70867;HTU21D;58487;53.474;49.470;2024-03-23T11:10:00;6.39;118.99
70867;HTU21D;58487;53.474;49.470;2024-03-23T11:12:30;6.67;111.99
70867;HTU21D;58487;53.474;49.470;2024-03-23T11:15:11;7.75;109.35
70867;HTU21D;58487;53.474;49.470;2024-03-23T11:17:56;8.11;118.99
70867;HTU21D;58487;53.474;49.470;2024-03-23T11:20:35;8.00;105.32
70867;HTU21D;58487;53.474;49.470;2024-03-23T11:23:05;8.08;106.64
70867;HTU21D;58487;53.474;49.470;2024-03-23T11:25:31;7.12;114.81
70867;HTU21D;58487;53.474;49.470;2024-03-23T11:28:08;7.73;118.99
70867;HTU21D;58487;53.474;49.470;2024-03-23T11:30:49;8.37;103.80
70867;HTU21D;58487;53.474;49.470;2024-03-23T11:33:15;8.92;110.93
70867;HTU21D;58487;53.474;49.470;2024-03-23T11:35:49;9.14;111.09
70867;HTU21D;58487;53.474;49.470;2024-03-23T11:38:19;9.06;99.58
70867;HTU21D;58487;53.474;49.470;2024-03-23T11:40:46;9.20;112.71
70867;HTU21D;58487;53.474;49.470;2024-03-23T11:43:17;9.16;106.11
70867;HTU21D;58487;53.474;49.470;2024-03-23T11:45:53;8.91;107.18
70867;HTU21D;58487;53.474;49.470;2024-03-23T11:48:23;8.52;105.15
70867;HTU21D;58487;53.474;49.470;2024-03-23T11:50:53;8.86;107.91
70867;HTU21D;58487;53.474;49.470;2024-03-23T11:53:22;9.72;106.27
70867;HTU21D;58487;53.474;49.470;2024-03-23T11:56:02;10.38;102.31
70867;HTU21D;58487;53.474;49.470;2024-03-23T11:58:28;10.07;104.21
70867;HTU21D;58487;53.474;49.470;2024-03-23T12:00:59;10.29;108.54
70867;HTU21D;58487;53.474;49.470;2024-03-23T12:03:29;10.90;105.05
70867;HTU21D;58487;53.474;49.470;2024-03-23T12:05:57;11.02;104.94
70867;HTU21D;58487;53.474;49.470;2024-03-23T12:08:32;11.00;109.97
70867;HTU21D;58487;53.474;49.470;2024-03-23T12:11:18;11.41;112.15
70867;HTU21D;58487;53.474;49.470;2024-03-23T12:13:51;11.45;103.20
70867;HTU21D;58487;53.474;49.470;2024-03-23T12:16:27;11.07;106.94
70867;HTU21D;58487;53.474;49.470;2024-03-23T12:19:05;11.41;106.64
70867;HTU21D;58487;53.474;49.470;2024-03-23T12:21:41;11.15;105.44
70867;HTU21D;58487;53.474;49.470;2024-03-23T12:24:14;10.65;115.15
70867;HTU21D;58487;53.474;49.470;2024-03-23T12:26:46;9.63;112.74
70867;HTU21D;58487;53.474;49.470;2024-03-23T12:29:15;9.94;103.20
70867;HTU21D;58487;53.474;49.470;2024-03-23T12:31:43;9.66;107.90
70867;HTU21D;58487;53.474;49.470;2024-03-23T12:34:15;9.24;100.69
70867;HTU21D;58487;53.474;49.470;2024-03-23T12:36:41;9.23;109.23
70867;HTU21D;58487;53.474;49.470;2024-03-23T12:39:09;9.57;112.25
70867;HTU21D;58487;53.474;49.470;2024-03-23T12:41:36;9.49;112.42
70867;HTU21D;58487;53.474;49.470;2024-03-23T12:44:05;9.89;102.41
70867;HTU21D;58487;53.474;49.470;2024-03-23T12:46:33;10.39;106.91
70867;HTU21D;58487;53.474;49.470;2024-03-23T12:48:59;10.53;107.43
70867;HTU21D;58487;53.474;49.470;2024-03-23T12:51:26;10.86;100.28
70867;HTU21D;58487;53.474;49.470;2024-03-23T12:53:52;11.74;118.34
70867;HTU21D;58487;53.474;49.470;2024-03-23T12:56:18;11.99;110.09
70867;HTU21D;58487;53.474;49.470;2024-03-23T12:58:44;11.81;100.26
70867;HTU21D;58487;53.474;49.470;2024-03-23T13:01:10;11.01;102.76
70867;HTU21D;58487;53.474;49.470;2024-03-23T13:03:36;10.90;107.58
70867;HTU21D;58487;53.474;49.470;2024-03-23T13:06:02;10.37;110.14
70867;HTU21D;58487;53.474;49.470;2024-03-23T13:08:33;9.82;103.44
70867;HTU21D;58487;53.474;49.470;2024-03-23T13:10:59;9.59;103.47
70867;HTU21D;58487;53.474;49.470;2024-03-23T13:13:25;9.69;97.29
70867;HTU21D;58487;53.474;49.470;2024-03-23T13:15:51;9.77;97.59
70867;HTU21D;58487;53.474;49.470;2024-03-23T13:18:17;9.06;94.84
70867;HTU21D;58487;53.474;49.470;2024-03-23T13:20:43;8.64;96.66
70867;HTU21D;58487;53.474;49.470;2024-03-23T13:23:09;8.08;94.43
70867;HTU21D;58487;53.474;49.470;2024-03-23T13:25:35;7.53;98.15
70867;HTU21D;58487;53.474;49.470;2024-03-23T13:28:03;7.63;103.87
70867;HTU21D;58487;53.474;49.470;2024-03-23T13:30:29;7.43;97.82
70867;HTU21D;58487;53.474;49.470;2024-03-23T13:32:55;6.66;96.10
70867;HTU21D;58487;53.474;49.470;2024-03-23T13:35:21;6.10;110.13
70867;HTU21D;58487;53.474;49.470;2024-03-23T13:37:50;6.25;97.96
70867;HTU21D;58487;53.474;49.470;2024-03-23T13:40:16;6.82;94.04
70867;HTU21D;58487;53.474;49.470;2024-03-23T13:42:42;6.65;113.80
70867;HTU21D;58487;53.474;49.470;2024-03-23T13:45:08;6.76;100.20
70867;HTU21D;58487;53.474;49.470;2024-03-23T13:47:37;6.89;90.60
70867;HTU21D;58487;53.474;49.470;2024-03-23T13:50:04;6.51;112.09
70867;HTU21D;58487;53.474;49.470;2024-03-23T13:52:30;6.51;93.83
70867;HTU21D;58487;53.474;49.470;2024-03-23T13:54:57;6.35;91.69
70867;HTU21D;58487;53.474;49.470;2024-03-23T13:57:23;6.53;90.35
70867;HTU21D;58487;53.474;49.470;2024-03-23T13:59:54;6.69;91.19
70867;HTU21D;58487;53.474;49.470;2024-03-23T14:02:20;7.58;91.57
70867;HTU21D;58487;53.474;49.470;2024-03-23T14:04:46;8.48;92.18
70867;HTU21D;58487;53.474;49.470;2024-03-23T14:07:12;8.57;94.00
70867;HTU21D;58487;53.474;49.470;2024-03-23T14:09:38;8.95;106.76
70867;HTU21D;58487;53.474;49.470;2024-03-23T14:12:04;9.82;90.08
70867;HTU21D;58487;53.474;49.470;2024-03-23T14:14:32;10.14;94.93
70867;HTU21D;58487;53.474;49.470;2024-03-23T14:16:59;9.68;93.20
70867;HTU21D;58487;53.474;49.470;2024-03-23T14:19:25;9.85;97.61
70867;HTU21D;58487;53.474;49.470;2024-03-23T14:21:51;10.00;102.35
70867;HTU21D;58487;53.474;49.470;2024-03-23T14:24:17;9.78;90.57
70867;HTU21D;58487;53.474;49.470;2024-03-23T14:26:43;10.29;91.16
70867;HTU21D;58487;53.474;49.470;2024-03-23T14:29:09;10.37;90.21
70867;HTU21D;58487;53.474;49.470;2024-03-23T14:31:35;9.84;90.51
70867;HTU21D;58487;53.474;49.470;2024-03-23T14:34:01;9.01;108.04
70867;HTU21D;58487;53.474;49.470;2024-03-23T14:36:27;7.93;96.80
70867;HTU21D;58487;53.474;49.470;2024-03-23T14:38:54;7.34;105.66
70867;HTU21D;58487;53.474;49.470;2024-03-23T14:41:20;6.88;118.99
70867;HTU21D;58487;53.474;49.470;2024-03-23T14:43:47;6.51;89.36
70867;HTU21D;58487;53.474;49.470;2024-03-23T14:46:20;6.05;96.95
70867;HTU21D;58487;53.474;49.470;2024-03-23T14:48:51;5.55;103.09
70867;HTU21D;58487;53.474;49.470;2024-03-23T14:51:17;5.38;100.79
70867;HTU21D;58487;53.474;49.470;2024-03-23T14:53:45;5.04;104.30
70867;HTU21D;58487;53.474;49.470;2024-03-23T14:56:12;4.94;106.24
70867;HTU21D;58487;53.474;49.470;2024-03-23T14:58:41;4.80;97.87
70867;HTU21D;58487;53.474;49.470;2024-03-23T15:01:08;4.95;86.19
70867;HTU21D;58487;53.474;49.470;2024-03-23T15:03:38;4.71;103.63
70867;HTU21D;58487;53.474;49.470;2024-03-23T15:06:10;4.43;90.33
70867;HTU21D;58487;53.474;49.470;2024-03-23T15:08:37;4.32;97.92
70867;HTU21D;58487;53.474;49.470;2024-03-23T15:11:03;4.57;98.10
70867;HTU21D;58487;53.474;49.470;2024-03-23T15:13:33;4.23;99.27
70867;HTU21D;58487;53.474;49.470;2024-03-23T15:16:01;4.43;109.04
70867;HTU21D;58487;53.474;49.470;2024-03-23T15:18:34;4.41;108.62
70867;HTU21D;58487;53.474;49.470;2024-03-23T15:21:03;4.36;96.69
70867;HTU21D;58487;53.474;49.470;2024-03-23T15:23:33;3.91;110.43
70867;HTU21D;58487;53.474;49.470;2024-03-23T15:26:01;3.62;96.48
70867;HTU21D;58487;53.474;49.470;2024-03-23T15:28:29;3.75;107.20
70867;HTU21D;58487;53.474;49.470;2024-03-23T15:31:09;3.93;108.40
70867;HTU21D;58487;53.474;49.470;2024-03-23T15:33:35;3.91;100.99
70867;HTU21D;58487;53.474;49.470;2024-03-23T15:36:02;3.97;105.08
70867;HTU21D;58487;53.474;49.470;2024-03-23T15:38:30;3.87;107.06
70867;HTU21D;58487;53.474;49.470;2024-03-23T15:40:57;3.43;105.16
70867;HTU21D;58487;53.474;49.470;2024-03-23T15:43:28;3.27;117.76
70867;HTU21D;58487;53.474;49.470;2024-03-23T15:46:01;3.17;109.03
70867;HTU21D;58487;53.474;49.470;2024-03-23T15:48:30;2.94;109.12
70867;HTU21D;58487;53.474;49.470;2024-03-23T15:51:00;2.74;103.09
70867;HTU21D;58487;53.474;49.470;2024-03-23T15:53:27;3.00;112.48
70867;HTU21D;58487;53.474;49.470;2024-03-23T15:56:03;3.15;104.50
70867;HTU21D;58487;53.474;49.470;2024-03-23T15:58:31;3.29;97.23
70867;HTU21D;58487;53.474;49.470;2024-03-23T16:01:05;3.39;99.35
70867;HTU21D;58487;53.474;49.470;2024-03-23T16:03:32;3.42;111.04
70867;HTU21D;58487;53.474;49.470;2024-03-23T16:06:03;3.23;106.24
70867;HTU21D;58487;53.474;49.470;2024-03-23T16:08:30;3.14;111.26